sensor_id;sensor_type;location;lat;lon;timestamp;P1;durP1;ratioP1;P2;durP2;ratioP2
46845;SDS011;33947;46.804;134.252;2023-02-03T00:00:44;51.28;;;18.60;;
46845;SDS011;33947;46.804;134.252;2023-02-03T00:03:48;96.75;;;33.65;;
46845;SDS011;33947;46.804;134.252;2023-02-03T00:06:55;39.65;;;17.20;;
46845;SDS011;33947;46.804;134.252;2023-02-03T00:10:02;359.92;;;90.85;;
46845;SDS011;33947;46.804;134.252;2023-02-03T00:13:07;61.53;;;22.20;;
46845;SDS011;33947;46.804;134.252;2023-02-03T00:16:14;74.25;;;23.10;;
46845;SDS011;33947;46.804;134.252;2023-02-03T00:19:21;53.55;;;14.98;;
46845;SDS011;33947;46.804;134.252;2023-02-03T00:22:26;85.22;;;36.85;;
46845;SDS011;33947;46.804;134.252;2023-02-03T00:25:32;132.43;;;37.42;;
46845;SDS011;33947;46.804;134.252;2023-02-03T00:28:39;90.28;;;28.00;;
46845;SDS011;33947;46.804;134.252;2023-02-03T00:31:45;87.10;;;31.25;;
46845;SDS011;33947;46.804;134.252;2023-02-03T00:34:51;51.63;;;23.30;;
46845;SDS011;33947;46.804;134.252;2023-02-03T00:37:57;102.35;;;35.53;;
46845;SDS011;33947;46.804;134.252;2023-02-03T00:41:03;96.63;;;33.03;;
46845;SDS011;33947;46.804;134.252;2023-02-03T00:44:10;76.55;;;23.83;;
46845;SDS011;33947;46.804;134.252;2023-02-03T00:47:16;60.40;;;27.38;;
46845;SDS011;33947;46.804;134.252;2023-02-03T00:50:20;75.63;;;30.02;;
46845;SDS011;33947;46.804;134.252;2023-02-03T00:53:28;111.38;;;32.33;;
46845;SDS011;33947;46.804;134.252;2023-02-03T00:56:32;91.32;;;32.85;;
46845;SDS011;33947;46.804;134.252;2023-02-03T00:59:36;126.28;;;33.55;;
46845;SDS011;33947;46.804;134.252;2023-02-03T01:02:40;248.52;;;64.40;;
46845;SDS011;33947;46.804;134.252;2023-02-03T01:05:49;115.50;;;32.97;;
46845;SDS011;33947;46.804;134.252;2023-02-03T01:08:53;39.90;;;16.40;;
46845;SDS011;33947;46.804;134.252;2023-02-03T01:12:03;55.30;;;21.58;;
46845;SDS011;33947;46.804;134.252;2023-02-03T01:15:07;331.83;;;71.35;;
46845;SDS011;33947;46.804;134.252;2023-02-03T01:18:15;152.50;;;43.80;;
46845;SDS011;33947;46.804;134.252;2023-02-03T01:21:23;81.93;;;32.53;;
46845;SDS011;33947;46.804;134.252;2023-02-03T01:24:29;62.40;;;26.92;;
46845;SDS011;33947;46.804;134.252;2023-02-03T01:27:35;89.72;;;34.40;;
46845;SDS011;33947;46.804;134.252;2023-02-03T01:30:42;56.10;;;20.85;;
46845;SDS011;33947;46.804;134.252;2023-02-03T01:33:49;49.38;;;17.75;;
46845;SDS011;33947;46.804;134.252;2023-02-03T01:36:56;45.72;;;20.30;;
46845;SDS011;33947;46.804;134.252;2023-02-03T01:40:02;27.15;;;12.55;;
46845;SDS011;33947;46.804;134.252;2023-02-03T01:43:26;33.75;;;12.00;;
46845;SDS011;33947;46.804;134.252;2023-02-03T01:46:43;28.90;;;12.50;;
46845;SDS011;33947;46.804;134.252;2023-02-03T01:53:19;27.52;;;11.43;;
46845;SDS011;33947;46.804;134.252;2023-02-03T01:56:35;20.65;;;8.88;;
46845;SDS011;33947;46.804;134.252;2023-02-03T01:59:43;54.70;;;19.02;;
46845;SDS011;33947;46.804;134.252;2023-02-03T02:02:48;26.58;;;9.48;;
46845;SDS011;33947;46.804;134.252;2023-02-03T02:05:53;23.73;;;10.43;;
46845;SDS011;33947;46.804;134.252;2023-02-03T02:09:04;23.80;;;9.43;;
46845;SDS011;33947;46.804;134.252;2023-02-03T02:12:10;69.28;;;21.85;;
46845;SDS011;33947;46.804;134.252;2023-02-03T02:15:16;23.58;;;8.57;;
46845;SDS011;33947;46.804;134.252;2023-02-03T02:28:51;14.25;;;7.07;;
46845;SDS011;33947;46.804;134.252;2023-02-03T02:49:06;16.58;;;7.60;;
46845;SDS011;33947;46.804;134.252;2023-02-03T02:52:33;15.33;;;7.73;;
46845;SDS011;33947;46.804;134.252;2023-02-03T02:55:48;21.73;;;9.38;;
46845;SDS011;33947;46.804;134.252;2023-02-03T02:58:58;19.00;;;8.02;;
46845;SDS011;33947;46.804;134.252;2023-02-03T03:02:05;115.15;;;29.85;;
46845;SDS011;33947;46.804;134.252;2023-02-03T03:05:13;239.75;;;73.78;;
46845;SDS011;33947;46.804;134.252;2023-02-03T03:08:29;67.15;;;22.35;;
46845;SDS011;33947;46.804;134.252;2023-02-03T03:11:57;19.55;;;9.95;;
46845;SDS011;33947;46.804;134.252;2023-02-03T03:15:10;19.13;;;7.40;;
46845;SDS011;33947;46.804;134.252;2023-02-03T03:18:33;15.25;;;7.03;;
46845;SDS011;33947;46.804;134.252;2023-02-03T03:21:44;16.52;;;7.35;;
46845;SDS011;33947;46.804;134.252;2023-02-03T03:24:57;11.80;;;5.45;;
46845;SDS011;33947;46.804;134.252;2023-02-03T03:28:08;53.63;;;16.48;;
46845;SDS011;33947;46.804;134.252;2023-02-03T03:31:20;40.63;;;14.82;;
46845;SDS011;33947;46.804;134.252;2023-02-03T03:37:37;23.50;;;7.47;;
46845;SDS011;33947;46.804;134.252;2023-02-03T03:40:53;73.20;;;21.75;;
46845;SDS011;33947;46.804;134.252;2023-02-03T03:44:09;17.35;;;6.53;;
46845;SDS011;33947;46.804;134.252;2023-02-03T03:47:19;65.43;;;33.15;;
46845;SDS011;33947;46.804;134.252;2023-02-03T03:50:48;77.55;;;40.28;;
46845;SDS011;33947;46.804;134.252;2023-02-03T03:53:59;12.40;;;6.07;;
46845;SDS011;33947;46.804;134.252;2023-02-03T04:00:21;37.42;;;14.65;;
46845;SDS011;33947;46.804;134.252;2023-02-03T04:03:52;15.10;;;7.22;;
46845;SDS011;33947;46.804;134.252;2023-02-03T04:07:11;14.02;;;5.57;;
46845;SDS011;33947;46.804;134.252;2023-02-03T04:13:38;69.00;;;24.02;;
46845;SDS011;33947;46.804;134.252;2023-02-03T04:16:44;64.32;;;20.00;;
46845;SDS011;33947;46.804;134.252;2023-02-03T04:19:50;21.60;;;11.55;;
46845;SDS011;33947;46.804;134.252;2023-02-03T04:22:56;36.22;;;21.90;;
46845;SDS011;33947;46.804;134.252;2023-02-03T04:26:00;18.23;;;7.25;;
46845;SDS011;33947;46.804;134.252;2023-02-03T04:29:08;53.88;;;22.98;;
46845;SDS011;33947;46.804;134.252;2023-02-03T04:32:14;27.80;;;10.75;;
46845;SDS011;33947;46.804;134.252;2023-02-03T04:35:20;24.38;;;8.32;;
46845;SDS011;33947;46.804;134.252;2023-02-03T04:38:27;69.70;;;18.50;;
46845;SDS011;33947;46.804;134.252;2023-02-03T04:41:34;68.57;;;19.45;;
46845;SDS011;33947;46.804;134.252;2023-02-03T04:44:39;15.30;;;5.72;;
46845;SDS011;33947;46.804;134.252;2023-02-03T04:47:49;15.00;;;6.40;;
46845;SDS011;33947;46.804;134.252;2023-02-03T04:50:59;16.30;;;7.82;;
46845;SDS011;33947;46.804;134.252;2023-02-03T04:54:10;22.60;;;9.32;;
46845;SDS011;33947;46.804;134.252;2023-02-03T04:57:15;21.23;;;9.50;;
46845;SDS011;33947;46.804;134.252;2023-02-03T05:00:21;36.50;;;10.95;;
46845;SDS011;33947;46.804;134.252;2023-02-03T05:06:33;16.98;;;6.30;;
46845;SDS011;33947;46.804;134.252;2023-02-03T05:12:40;12.73;;;5.13;;
46845;SDS011;33947;46.804;134.252;2023-02-03T05:15:46;11.73;;;5.47;;
46845;SDS011;33947;46.804;134.252;2023-02-03T05:18:52;57.33;;;20.02;;
46845;SDS011;33947;46.804;134.252;2023-02-03T05:21:58;15.88;;;6.13;;
46845;SDS011;33947;46.804;134.252;2023-02-03T05:25:04;13.50;;;6.30;;
46845;SDS011;33947;46.804;134.252;2023-02-03T05:28:10;20.65;;;7.80;;
46845;SDS011;33947;46.804;134.252;2023-02-03T05:31:16;12.50;;;5.75;;
46845;SDS011;33947;46.804;134.252;2023-02-03T05:34:22;12.27;;;6.10;;
46845;SDS011;33947;46.804;134.252;2023-02-03T05:37:28;86.40;;;22.92;;
46845;SDS011;33947;46.804;134.252;2023-02-03T05:40:34;13.32;;;5.25;;
46845;SDS011;33947;46.804;134.252;2023-02-03T05:43:58;9.73;;;4.53;;
46845;SDS011;33947;46.804;134.252;2023-02-03T05:50:10;23.70;;;9.15;;
46845;SDS011;33947;46.804;134.252;2023-02-03T05:53:16;21.85;;;9.63;;
46845;SDS011;33947;46.804;134.252;2023-02-03T05:56:22;16.08;;;7.38;;
46845;SDS011;33947;46.804;134.252;2023-02-03T05:59:26;18.60;;;8.60;;
46845;SDS011;33947;46.804;134.252;2023-02-03T06:02:32;29.75;;;14.00;;
46845;SDS011;33947;46.804;134.252;2023-02-03T06:08:47;18.98;;;11.68;;
46845;SDS011;33947;46.804;134.252;2023-02-03T06:11:54;58.85;;;22.17;;
46845;SDS011;33947;46.804;134.252;2023-02-03T06:14:58;65.28;;;22.58;;
46845;SDS011;33947;46.804;134.252;2023-02-03T06:18:07;90.85;;;29.20;;
46845;SDS011;33947;46.804;134.252;2023-02-03T06:21:13;39.28;;;18.77;;
46845;SDS011;33947;46.804;134.252;2023-02-03T06:24:17;17.55;;;7.55;;
46845;SDS011;33947;46.804;134.252;2023-02-03T06:27:25;104.00;;;28.95;;
46845;SDS011;33947;46.804;134.252;2023-02-03T06:30:32;62.15;;;22.80;;
46845;SDS011;33947;46.804;134.252;2023-02-03T06:33:42;32.50;;;10.75;;
46845;SDS011;33947;46.804;134.252;2023-02-03T06:36:53;35.08;;;12.57;;
46845;SDS011;33947;46.804;134.252;2023-02-03T06:40:03;54.38;;;21.13;;
46845;SDS011;33947;46.804;134.252;2023-02-03T06:43:07;36.15;;;14.82;;
46845;SDS011;33947;46.804;134.252;2023-02-03T06:46:18;27.42;;;11.63;;
46845;SDS011;33947;46.804;134.252;2023-02-03T06:49:25;29.42;;;11.50;;
46845;SDS011;33947;46.804;134.252;2023-02-03T06:52:33;28.17;;;15.18;;
46845;SDS011;33947;46.804;134.252;2023-02-03T06:58:44;18.98;;;10.95;;
46845;SDS011;33947;46.804;134.252;2023-02-03T07:01:52;17.95;;;7.45;;
46845;SDS011;33947;46.804;134.252;2023-02-03T07:05:01;18.65;;;8.02;;
46845;SDS011;33947;46.804;134.252;2023-02-03T07:08:07;30.65;;;11.27;;
46845;SDS011;33947;46.804;134.252;2023-02-03T07:11:13;18.50;;;9.90;;
46845;SDS011;33947;46.804;134.252;2023-02-03T07:14:17;23.42;;;10.65;;
46845;SDS011;33947;46.804;134.252;2023-02-03T07:17:24;21.27;;;9.27;;
46845;SDS011;33947;46.804;134.252;2023-02-03T07:20:33;18.55;;;8.27;;
46845;SDS011;33947;46.804;134.252;2023-02-03T07:23:39;26.42;;;10.30;;
46845;SDS011;33947;46.804;134.252;2023-02-03T07:26:45;23.30;;;9.25;;
46845;SDS011;33947;46.804;134.252;2023-02-03T07:29:51;63.30;;;21.80;;
46845;SDS011;33947;46.804;134.252;2023-02-03T07:32:56;26.88;;;11.52;;
46845;SDS011;33947;46.804;134.252;2023-02-03T07:36:02;36.70;;;14.52;;
46845;SDS011;33947;46.804;134.252;2023-02-03T07:39:09;36.45;;;12.70;;
46845;SDS011;33947;46.804;134.252;2023-02-03T07:42:15;26.58;;;10.68;;
46845;SDS011;33947;46.804;134.252;2023-02-03T07:45:25;32.15;;;12.48;;
46845;SDS011;33947;46.804;134.252;2023-02-03T07:48:31;28.63;;;10.43;;
46845;SDS011;33947;46.804;134.252;2023-02-03T07:51:37;39.50;;;13.48;;
46845;SDS011;33947;46.804;134.252;2023-02-03T07:54:43;45.65;;;14.15;;
46845;SDS011;33947;46.804;134.252;2023-02-03T07:57:48;35.40;;;12.20;;
46845;SDS011;33947;46.804;134.252;2023-02-03T08:00:55;25.90;;;9.32;;
46845;SDS011;33947;46.804;134.252;2023-02-03T08:04:01;23.98;;;10.05;;
46845;SDS011;33947;46.804;134.252;2023-02-03T08:07:09;24.70;;;9.40;;
46845;SDS011;33947;46.804;134.252;2023-02-03T08:10:15;61.78;;;19.83;;
46845;SDS011;33947;46.804;134.252;2023-02-03T08:13:22;147.95;;;41.72;;
46845;SDS011;33947;46.804;134.252;2023-02-03T08:16:27;78.72;;;25.42;;
46845;SDS011;33947;46.804;134.252;2023-02-03T08:23:00;17.00;;;8.68;;
46845;SDS011;33947;46.804;134.252;2023-02-03T08:26:06;19.85;;;7.93;;
46845;SDS011;33947;46.804;134.252;2023-02-03T08:32:17;18.35;;;9.68;;
46845;SDS011;33947;46.804;134.252;2023-02-03T08:35:26;17.55;;;9.07;;
46845;SDS011;33947;46.804;134.252;2023-02-03T08:42:08;42.67;;;15.13;;
46845;SDS011;33947;46.804;134.252;2023-02-03T08:45:16;39.60;;;14.23;;
46845;SDS011;33947;46.804;134.252;2023-02-03T08:48:21;40.35;;;17.17;;
46845;SDS011;33947;46.804;134.252;2023-02-03T08:51:27;35.28;;;13.13;;
46845;SDS011;33947;46.804;134.252;2023-02-03T08:54:34;39.75;;;16.75;;
46845;SDS011;33947;46.804;134.252;2023-02-03T08:57:40;39.63;;;17.90;;
46845;SDS011;33947;46.804;134.252;2023-02-03T09:00:46;37.58;;;17.02;;
46845;SDS011;33947;46.804;134.252;2023-02-03T09:03:54;42.35;;;18.08;;
46845;SDS011;33947;46.804;134.252;2023-02-03T09:06:59;70.68;;;25.33;;
46845;SDS011;33947;46.804;134.252;2023-02-03T09:10:08;69.07;;;26.98;;
46845;SDS011;33947;46.804;134.252;2023-02-03T09:13:15;65.30;;;27.08;;
46845;SDS011;33947;46.804;134.252;2023-02-03T09:16:21;126.53;;;38.45;;
46845;SDS011;33947;46.804;134.252;2023-02-03T09:19:28;123.18;;;39.25;;
46845;SDS011;33947;46.804;134.252;2023-02-03T09:22:34;78.30;;;26.70;;
46845;SDS011;33947;46.804;134.252;2023-02-03T09:25:40;93.35;;;35.05;;
46845;SDS011;33947;46.804;134.252;2023-02-03T09:28:49;86.53;;;31.45;;
46845;SDS011;33947;46.804;134.252;2023-02-03T09:35:01;85.20;;;32.28;;
46845;SDS011;33947;46.804;134.252;2023-02-03T09:38:07;135.23;;;44.67;;
46845;SDS011;33947;46.804;134.252;2023-02-03T09:48:23;182.13;;;56.67;;
46845;SDS011;33947;46.804;134.252;2023-02-03T09:51:46;203.75;;;54.17;;
46845;SDS011;33947;46.804;134.252;2023-02-03T09:58:17;224.68;;;63.38;;
46845;SDS011;33947;46.804;134.252;2023-02-03T10:01:42;200.60;;;58.10;;
46845;SDS011;33947;46.804;134.252;2023-02-03T10:05:00;250.02;;;69.80;;
46845;SDS011;33947;46.804;134.252;2023-02-03T10:19:09;392.33;;;112.82;;
46845;SDS011;33947;46.804;134.252;2023-02-03T10:22:22;358.07;;;101.33;;
46845;SDS011;33947;46.804;134.252;2023-02-03T10:25:36;336.65;;;96.00;;
46845;SDS011;33947;46.804;134.252;2023-02-03T10:28:50;264.65;;;86.05;;
46845;SDS011;33947;46.804;134.252;2023-02-03T10:32:25;258.42;;;77.10;;
46845;SDS011;33947;46.804;134.252;2023-02-03T10:35:35;215.35;;;72.88;;
46845;SDS011;33947;46.804;134.252;2023-02-03T10:42:14;657.85;;;183.25;;
46845;SDS011;33947;46.804;134.252;2023-02-03T10:45:19;510.42;;;143.40;;
46845;SDS011;33947;46.804;134.252;2023-02-03T10:48:29;581.85;;;166.35;;
46845;SDS011;33947;46.804;134.252;2023-02-03T10:51:47;580.30;;;155.23;;
46845;SDS011;33947;46.804;134.252;2023-02-03T10:54:56;336.23;;;98.80;;
46845;SDS011;33947;46.804;134.252;2023-02-03T10:58:05;212.98;;;66.50;;
46845;SDS011;33947;46.804;134.252;2023-02-03T11:01:22;157.25;;;48.08;;
46845;SDS011;33947;46.804;134.252;2023-02-03T11:04:31;117.75;;;37.53;;
46845;SDS011;33947;46.804;134.252;2023-02-03T11:07:37;121.93;;;41.55;;
46845;SDS011;33947;46.804;134.252;2023-02-03T11:10:46;134.35;;;43.10;;
46845;SDS011;33947;46.804;134.252;2023-02-03T11:17:43;135.07;;;45.17;;
46845;SDS011;33947;46.804;134.252;2023-02-03T11:20:50;157.45;;;47.10;;
46845;SDS011;33947;46.804;134.252;2023-02-03T11:24:13;129.55;;;42.95;;
46845;SDS011;33947;46.804;134.252;2023-02-03T11:27:31;102.55;;;37.50;;
46845;SDS011;33947;46.804;134.252;2023-02-03T11:30:39;82.18;;;30.77;;
46845;SDS011;33947;46.804;134.252;2023-02-03T11:33:54;90.20;;;31.90;;
46845;SDS011;33947;46.804;134.252;2023-02-03T11:40:36;68.68;;;29.60;;
46845;SDS011;33947;46.804;134.252;2023-02-03T11:43:44;95.22;;;32.85;;
46845;SDS011;33947;46.804;134.252;2023-02-03T11:46:51;66.68;;;26.70;;
46845;SDS011;33947;46.804;134.252;2023-02-03T11:50:06;77.32;;;26.33;;
46845;SDS011;33947;46.804;134.252;2023-02-03T11:57:04;97.82;;;33.97;;
46845;SDS011;33947;46.804;134.252;2023-02-03T12:11:41;109.13;;;36.72;;
46845;SDS011;33947;46.804;134.252;2023-02-03T12:19:10;66.07;;;26.27;;
46845;SDS011;33947;46.804;134.252;2023-02-03T12:22:28;89.77;;;32.07;;
46845;SDS011;33947;46.804;134.252;2023-02-03T12:32:32;100.75;;;33.13;;
46845;SDS011;33947;46.804;134.252;2023-02-03T12:35:47;159.93;;;47.78;;
46845;SDS011;33947;46.804;134.252;2023-02-03T12:39:00;146.20;;;44.22;;
46845;SDS011;33947;46.804;134.252;2023-02-03T12:45:40;64.18;;;25.75;;
46845;SDS011;33947;46.804;134.252;2023-02-03T12:55:42;591.97;;;212.32;;
46845;SDS011;33947;46.804;134.252;2023-02-03T12:59:07;440.65;;;128.13;;
46845;SDS011;33947;46.804;134.252;2023-02-03T13:02:27;936.42;;;345.83;;
46845;SDS011;33947;46.804;134.252;2023-02-03T13:05:40;150.73;;;44.70;;
46845;SDS011;33947;46.804;134.252;2023-02-03T13:12:45;73.47;;;28.13;;
46845;SDS011;33947;46.804;134.252;2023-02-03T13:15:55;86.30;;;27.85;;
46845;SDS011;33947;46.804;134.252;2023-02-03T13:19:13;110.22;;;36.95;;
46845;SDS011;33947;46.804;134.252;2023-02-03T13:22:22;116.40;;;37.17;;
46845;SDS011;33947;46.804;134.252;2023-02-03T13:25:55;87.15;;;30.65;;
46845;SDS011;33947;46.804;134.252;2023-02-03T13:35:52;422.90;;;123.28;;
46845;SDS011;33947;46.804;134.252;2023-02-03T13:39:16;316.02;;;90.18;;
46845;SDS011;33947;46.804;134.252;2023-02-03T13:43:02;173.60;;;57.40;;
46845;SDS011;33947;46.804;134.252;2023-02-03T13:46:16;323.35;;;90.50;;
46845;SDS011;33947;46.804;134.252;2023-02-03T13:49:33;319.10;;;90.85;;
46845;SDS011;33947;46.804;134.252;2023-02-03T13:52:59;322.60;;;98.03;;
46845;SDS011;33947;46.804;134.252;2023-02-03T13:56:28;375.38;;;100.38;;
46845;SDS011;33947;46.804;134.252;2023-02-03T14:02:43;174.07;;;54.45;;
46845;SDS011;33947;46.804;134.252;2023-02-03T14:05:57;109.95;;;43.92;;
46845;SDS011;33947;46.804;134.252;2023-02-03T14:12:36;133.43;;;48.22;;
46845;SDS011;33947;46.804;134.252;2023-02-03T14:15:44;104.43;;;37.33;;
46845;SDS011;33947;46.804;134.252;2023-02-03T14:19:11;168.43;;;51.97;;
46845;SDS011;33947;46.804;134.252;2023-02-03T14:22:38;140.15;;;49.20;;
46845;SDS011;33947;46.804;134.252;2023-02-03T14:25:45;198.23;;;63.03;;
46845;SDS011;33947;46.804;134.252;2023-02-03T14:28:55;102.63;;;43.95;;
46845;SDS011;33947;46.804;134.252;2023-02-03T14:32:05;129.75;;;44.45;;
46845;SDS011;33947;46.804;134.252;2023-02-03T14:35:16;145.18;;;50.33;;
46845;SDS011;33947;46.804;134.252;2023-02-03T14:38:28;143.15;;;48.95;;
46845;SDS011;33947;46.804;134.252;2023-02-03T14:41:42;159.73;;;53.58;;
46845;SDS011;33947;46.804;134.252;2023-02-03T14:51:31;147.57;;;47.72;;
46845;SDS011;33947;46.804;134.252;2023-02-03T14:58:28;33.85;;;13.98;;
46845;SDS011;33947;46.804;134.252;2023-02-03T15:04:46;52.40;;;18.63;;
46845;SDS011;33947;46.804;134.252;2023-02-03T15:07:54;36.97;;;13.73;;
46845;SDS011;33947;46.804;134.252;2023-02-03T15:14:36;37.20;;;10.38;;
46845;SDS011;33947;46.804;134.252;2023-02-03T15:17:42;42.53;;;15.18;;
46845;SDS011;33947;46.804;134.252;2023-02-03T15:20:51;47.08;;;15.68;;
46845;SDS011;33947;46.804;134.252;2023-02-03T15:23:58;38.35;;;11.98;;
46845;SDS011;33947;46.804;134.252;2023-02-03T15:27:04;24.98;;;10.60;;
46845;SDS011;33947;46.804;134.252;2023-02-03T15:30:26;25.98;;;12.60;;
46845;SDS011;33947;46.804;134.252;2023-02-03T15:33:33;19.50;;;7.95;;
46845;SDS011;33947;46.804;134.252;2023-02-03T15:36:44;26.98;;;11.68;;
46845;SDS011;33947;46.804;134.252;2023-02-03T15:40:05;24.08;;;11.52;;
46845;SDS011;33947;46.804;134.252;2023-02-03T15:43:31;23.25;;;8.52;;
46845;SDS011;33947;46.804;134.252;2023-02-03T15:46:43;37.90;;;13.75;;
46845;SDS011;33947;46.804;134.252;2023-02-03T15:49:58;40.38;;;15.40;;
46845;SDS011;33947;46.804;134.252;2023-02-03T15:56:50;17.55;;;10.38;;
46845;SDS011;33947;46.804;134.252;2023-02-03T16:03:39;18.17;;;8.98;;
46845;SDS011;33947;46.804;134.252;2023-02-03T16:06:49;38.90;;;14.13;;
46845;SDS011;33947;46.804;134.252;2023-02-03T16:09:58;30.92;;;13.63;;
46845;SDS011;33947;46.804;134.252;2023-02-03T16:13:22;23.60;;;10.68;;
46845;SDS011;33947;46.804;134.252;2023-02-03T16:19:50;19.77;;;9.20;;
46845;SDS011;33947;46.804;134.252;2023-02-03T16:23:19;16.45;;;8.88;;
46845;SDS011;33947;46.804;134.252;2023-02-03T16:26:28;21.33;;;9.55;;
46845;SDS011;33947;46.804;134.252;2023-02-03T16:29:35;15.27;;;7.10;;
46845;SDS011;33947;46.804;134.252;2023-02-03T16:36:32;44.92;;;16.77;;
46845;SDS011;33947;46.804;134.252;2023-02-03T16:40:03;33.83;;;10.38;;
46845;SDS011;33947;46.804;134.252;2023-02-03T16:43:27;22.65;;;12.43;;
46845;SDS011;33947;46.804;134.252;2023-02-03T16:46:51;16.75;;;9.50;;
46845;SDS011;33947;46.804;134.252;2023-02-03T16:50:27;15.43;;;6.05;;
46845;SDS011;33947;46.804;134.252;2023-02-03T16:54:12;21.90;;;9.70;;
46845;SDS011;33947;46.804;134.252;2023-02-03T16:57:19;30.98;;;10.80;;
46845;SDS011;33947;46.804;134.252;2023-02-03T17:00:26;22.45;;;9.52;;
46845;SDS011;33947;46.804;134.252;2023-02-03T17:07:15;14.52;;;6.80;;
46845;SDS011;33947;46.804;134.252;2023-02-03T17:10:21;7.90;;;4.70;;
46845;SDS011;33947;46.804;134.252;2023-02-03T17:13:28;17.70;;;9.07;;
46845;SDS011;33947;46.804;134.252;2023-02-03T17:16:34;22.73;;;9.93;;
46845;SDS011;33947;46.804;134.252;2023-02-03T17:19:40;15.10;;;8.00;;
46845;SDS011;33947;46.804;134.252;2023-02-03T17:22:46;26.55;;;9.40;;
46845;SDS011;33947;46.804;134.252;2023-02-03T17:25:55;16.92;;;7.63;;
46845;SDS011;33947;46.804;134.252;2023-02-03T17:29:02;34.08;;;10.82;;
46845;SDS011;33947;46.804;134.252;2023-02-03T17:32:08;13.63;;;7.28;;
46845;SDS011;33947;46.804;134.252;2023-02-03T17:35:18;12.13;;;7.00;;
46845;SDS011;33947;46.804;134.252;2023-02-03T17:38:24;12.95;;;7.35;;
46845;SDS011;33947;46.804;134.252;2023-02-03T17:41:31;16.30;;;7.93;;
46845;SDS011;33947;46.804;134.252;2023-02-03T17:44:54;7.95;;;5.63;;
46845;SDS011;33947;46.804;134.252;2023-02-03T17:48:16;24.17;;;11.38;;
46845;SDS011;33947;46.804;134.252;2023-02-03T17:51:39;14.02;;;8.15;;
46845;SDS011;33947;46.804;134.252;2023-02-03T17:55:01;72.72;;;22.55;;
46845;SDS011;33947;46.804;134.252;2023-02-03T17:58:07;100.18;;;38.85;;
46845;SDS011;33947;46.804;134.252;2023-02-03T18:01:17;88.82;;;27.92;;
46845;SDS011;33947;46.804;134.252;2023-02-03T18:04:22;60.03;;;24.05;;
46845;SDS011;33947;46.804;134.252;2023-02-03T18:07:26;38.83;;;14.60;;
46845;SDS011;33947;46.804;134.252;2023-02-03T18:10:32;30.33;;;15.48;;
46845;SDS011;33947;46.804;134.252;2023-02-03T18:13:39;50.67;;;21.90;;
46845;SDS011;33947;46.804;134.252;2023-02-03T18:16:51;52.03;;;22.27;;
46845;SDS011;33947;46.804;134.252;2023-02-03T18:19:57;73.82;;;23.65;;
46845;SDS011;33947;46.804;134.252;2023-02-03T18:23:05;44.45;;;18.08;;
46845;SDS011;33947;46.804;134.252;2023-02-03T18:26:11;38.28;;;18.90;;
46845;SDS011;33947;46.804;134.252;2023-02-03T18:29:18;53.13;;;21.23;;
46845;SDS011;33947;46.804;134.252;2023-02-03T18:32:24;70.07;;;21.25;;
46845;SDS011;33947;46.804;134.252;2023-02-03T18:35:31;54.88;;;19.50;;
46845;SDS011;33947;46.804;134.252;2023-02-03T18:38:38;23.52;;;13.63;;
46845;SDS011;33947;46.804;134.252;2023-02-03T18:41:45;55.47;;;22.30;;
46845;SDS011;33947;46.804;134.252;2023-02-03T18:44:51;67.03;;;26.30;;
46845;SDS011;33947;46.804;134.252;2023-02-03T18:47:57;57.95;;;22.92;;
46845;SDS011;33947;46.804;134.252;2023-02-03T18:51:06;68.25;;;27.33;;
46845;SDS011;33947;46.804;134.252;2023-02-03T18:54:13;60.78;;;24.13;;
46845;SDS011;33947;46.804;134.252;2023-02-03T18:57:19;72.65;;;26.45;;
46845;SDS011;33947;46.804;134.252;2023-02-03T19:00:27;61.47;;;22.85;;
46845;SDS011;33947;46.804;134.252;2023-02-03T19:03:34;30.90;;;13.50;;
46845;SDS011;33947;46.804;134.252;2023-02-03T19:06:41;24.27;;;16.35;;
46845;SDS011;33947;46.804;134.252;2023-02-03T19:13:02;28.45;;;15.48;;
46845;SDS011;33947;46.804;134.252;2023-02-03T19:16:08;22.48;;;9.98;;
46845;SDS011;33947;46.804;134.252;2023-02-03T19:19:18;25.75;;;14.02;;
46845;SDS011;33947;46.804;134.252;2023-02-03T19:22:24;44.50;;;16.08;;
46845;SDS011;33947;46.804;134.252;2023-02-03T19:25:29;24.05;;;12.50;;
46845;SDS011;33947;46.804;134.252;2023-02-03T19:28:37;21.80;;;11.30;;
46845;SDS011;33947;46.804;134.252;2023-02-03T19:31:44;19.70;;;8.73;;
46845;SDS011;33947;46.804;134.252;2023-02-03T19:34:50;56.95;;;18.60;;
46845;SDS011;33947;46.804;134.252;2023-02-03T19:37:55;53.30;;;21.40;;
46845;SDS011;33947;46.804;134.252;2023-02-03T19:41:02;29.45;;;16.10;;
46845;SDS011;33947;46.804;134.252;2023-02-03T19:44:08;42.17;;;20.48;;
46845;SDS011;33947;46.804;134.252;2023-02-03T19:47:14;40.15;;;12.93;;
46845;SDS011;33947;46.804;134.252;2023-02-03T19:50:20;44.35;;;16.50;;
46845;SDS011;33947;46.804;134.252;2023-02-03T19:53:26;30.17;;;8.48;;
46845;SDS011;33947;46.804;134.252;2023-02-03T19:56:32;46.65;;;22.00;;
46845;SDS011;33947;46.804;134.252;2023-02-03T19:59:38;35.45;;;18.33;;
46845;SDS011;33947;46.804;134.252;2023-02-03T20:02:43;40.80;;;14.00;;
46845;SDS011;33947;46.804;134.252;2023-02-03T20:05:49;52.80;;;19.73;;
46845;SDS011;33947;46.804;134.252;2023-02-03T20:08:58;25.10;;;14.13;;
46845;SDS011;33947;46.804;134.252;2023-02-03T20:12:02;56.40;;;16.17;;
46845;SDS011;33947;46.804;134.252;2023-02-03T20:15:08;33.97;;;14.60;;
46845;SDS011;33947;46.804;134.252;2023-02-03T20:18:14;38.85;;;15.95;;
46845;SDS011;33947;46.804;134.252;2023-02-03T20:21:20;13.00;;;6.10;;
46845;SDS011;33947;46.804;134.252;2023-02-03T20:24:24;3.55;;;3.17;;
46845;SDS011;33947;46.804;134.252;2023-02-03T20:27:32;14.52;;;6.13;;
46845;SDS011;33947;46.804;134.252;2023-02-03T20:30:38;7.53;;;5.03;;
46845;SDS011;33947;46.804;134.252;2023-02-03T20:33:42;6.50;;;4.95;;
46845;SDS011;33947;46.804;134.252;2023-02-03T20:36:48;11.82;;;6.70;;
46845;SDS011;33947;46.804;134.252;2023-02-03T20:39:56;10.45;;;6.20;;
46845;SDS011;33947;46.804;134.252;2023-02-03T20:43:11;16.55;;;7.50;;
46845;SDS011;33947;46.804;134.252;2023-02-03T20:46:20;22.33;;;9.90;;
46845;SDS011;33947;46.804;134.252;2023-02-03T20:49:26;10.60;;;9.55;;
46845;SDS011;33947;46.804;134.252;2023-02-03T20:52:32;35.80;;;17.55;;
46845;SDS011;33947;46.804;134.252;2023-02-03T20:55:36;37.50;;;12.32;;
46845;SDS011;33947;46.804;134.252;2023-02-03T20:58:44;35.45;;;20.38;;
46845;SDS011;33947;46.804;134.252;2023-02-03T21:01:50;24.73;;;12.98;;
46845;SDS011;33947;46.804;134.252;2023-02-03T21:04:56;20.67;;;11.60;;
46845;SDS011;33947;46.804;134.252;2023-02-03T21:08:09;38.92;;;14.75;;
46845;SDS011;33947;46.804;134.252;2023-02-03T21:11:21;28.88;;;17.55;;